sensor_id;sensor_type;location;lat;lon;timestamp;P1;durP1;ratioP1;P2;durP2;ratioP2
27305;SDS011;14792;50.886;6.468;2023-04-29T00:01:26;37.50;;;24.63;;
27305;SDS011;14792;50.886;6.468;2023-04-29T00:04:28;36.68;;;25.55;;
27305;SDS011;14792;50.886;6.468;2023-04-29T00:07:32;42.23;;;26.50;;
27305;SDS011;14792;50.886;6.468;2023-04-29T00:10:31;38.15;;;25.92;;
27305;SDS011;14792;50.886;6.468;2023-04-29T00:13:32;42.50;;;28.27;;
27305;SDS011;14792;50.886;6.468;2023-04-29T00:16:34;40.65;;;28.00;;
27305;SDS011;14792;50.886;6.468;2023-04-29T00:19:35;47.60;;;29.63;;
27305;SDS011;14792;50.886;6.468;2023-04-29T00:22:37;55.92;;;30.52;;
27305;SDS011;14792;50.886;6.468;2023-04-29T00:25:39;42.00;;;26.62;;
27305;SDS011;14792;50.886;6.468;2023-04-29T00:28:40;38.40;;;25.60;;
27305;SDS011;14792;50.886;6.468;2023-04-29T00:31:42;29.63;;;21.27;;
27305;SDS011;14792;50.886;6.468;2023-04-29T00:34:43;23.07;;;16.20;;
27305;SDS011;14792;50.886;6.468;2023-04-29T00:37:45;15.68;;;11.25;;
27305;SDS011;14792;50.886;6.468;2023-04-29T00:40:47;10.85;;;8.80;;
27305;SDS011;14792;50.886;6.468;2023-04-29T00:43:48;14.03;;;9.20;;
27305;SDS011;14792;50.886;6.468;2023-04-29T00:46:50;13.28;;;8.43;;
27305;SDS011;14792;50.886;6.468;2023-04-29T00:49:51;15.43;;;10.48;;
27305;SDS011;14792;50.886;6.468;2023-04-29T00:52:53;20.40;;;13.15;;
27305;SDS011;14792;50.886;6.468;2023-04-29T00:55:55;24.10;;;15.25;;
27305;SDS011;14792;50.886;6.468;2023-04-29T00:58:56;28.05;;;18.00;;
27305;SDS011;14792;50.886;6.468;2023-04-29T01:02:01;28.15;;;18.73;;
27305;SDS011;14792;50.886;6.468;2023-04-29T01:05:02;33.80;;;20.65;;
27305;SDS011;14792;50.886;6.468;2023-04-29T01:11:08;41.80;;;23.60;;
27305;SDS011;14792;50.886;6.468;2023-04-29T01:14:10;41.53;;;25.60;;
27305;SDS011;14792;50.886;6.468;2023-04-29T01:17:14;43.50;;;26.30;;
27305;SDS011;14792;50.886;6.468;2023-04-29T01:20:13;49.00;;;29.40;;
27305;SDS011;14792;50.886;6.468;2023-04-29T01:23:15;55.17;;;31.00;;
27305;SDS011;14792;50.886;6.468;2023-04-29T01:26:16;51.75;;;31.15;;
27305;SDS011;14792;50.886;6.468;2023-04-29T01:29:21;53.20;;;31.23;;
27305;SDS011;14792;50.886;6.468;2023-04-29T01:32:28;56.13;;;32.20;;
27305;SDS011;14792;50.886;6.468;2023-04-29T01:35:37;54.25;;;30.15;;
27305;SDS011;14792;50.886;6.468;2023-04-29T01:42:05;57.05;;;33.25;;
27305;SDS011;14792;50.886;6.468;2023-04-29T01:45:19;56.10;;;35.15;;
27305;SDS011;14792;50.886;6.468;2023-04-29T01:48:21;60.80;;;35.80;;
27305;SDS011;14792;50.886;6.468;2023-04-29T01:51:22;59.53;;;36.13;;
27305;SDS011;14792;50.886;6.468;2023-04-29T01:54:24;62.45;;;37.67;;
27305;SDS011;14792;50.886;6.468;2023-04-29T01:57:25;61.02;;;37.83;;
27305;SDS011;14792;50.886;6.468;2023-04-29T02:00:27;60.95;;;37.48;;
27305;SDS011;14792;50.886;6.468;2023-04-29T02:03:29;65.35;;;38.55;;
27305;SDS011;14792;50.886;6.468;2023-04-29T02:06:30;56.85;;;37.00;;
27305;SDS011;14792;50.886;6.468;2023-04-29T02:09:32;65.92;;;39.27;;
27305;SDS011;14792;50.886;6.468;2023-04-29T02:12:34;60.40;;;38.42;;
27305;SDS011;14792;50.886;6.468;2023-04-29T02:15:36;64.82;;;38.63;;
27305;SDS011;14792;50.886;6.468;2023-04-29T02:18:37;62.55;;;38.00;;
27305;SDS011;14792;50.886;6.468;2023-04-29T02:21:39;63.13;;;39.53;;
27305;SDS011;14792;50.886;6.468;2023-04-29T02:24:40;64.15;;;38.58;;
27305;SDS011;14792;50.886;6.468;2023-04-29T02:27:42;66.65;;;39.50;;
27305;SDS011;14792;50.886;6.468;2023-04-29T02:30:44;63.92;;;38.17;;
27305;SDS011;14792;50.886;6.468;2023-04-29T02:33:46;71.40;;;38.10;;
27305;SDS011;14792;50.886;6.468;2023-04-29T02:36:47;67.08;;;38.30;;
27305;SDS011;14792;50.886;6.468;2023-04-29T02:39:49;62.75;;;39.13;;
27305;SDS011;14792;50.886;6.468;2023-04-29T02:42:50;70.52;;;41.00;;
27305;SDS011;14792;50.886;6.468;2023-04-29T02:45:55;67.27;;;38.42;;
27305;SDS011;14792;50.886;6.468;2023-04-29T02:48:57;70.87;;;39.70;;
27305;SDS011;14792;50.886;6.468;2023-04-29T02:51:58;72.85;;;41.53;;
27305;SDS011;14792;50.886;6.468;2023-04-29T02:55:00;74.60;;;40.67;;
27305;SDS011;14792;50.886;6.468;2023-04-29T02:58:01;77.10;;;42.30;;
27305;SDS011;14792;50.886;6.468;2023-04-29T03:01:03;79.75;;;40.48;;
27305;SDS011;14792;50.886;6.468;2023-04-29T03:04:04;75.92;;;42.05;;
27305;SDS011;14792;50.886;6.468;2023-04-29T03:07:06;80.42;;;44.60;;
27305;SDS011;14792;50.886;6.468;2023-04-29T03:10:08;96.17;;;48.02;;
27305;SDS011;14792;50.886;6.468;2023-04-29T03:13:09;89.17;;;48.08;;
27305;SDS011;14792;50.886;6.468;2023-04-29T03:16:11;93.92;;;48.85;;
27305;SDS011;14792;50.886;6.468;2023-04-29T03:19:15;87.78;;;48.55;;
27305;SDS011;14792;50.886;6.468;2023-04-29T03:22:17;93.15;;;48.87;;
27305;SDS011;14792;50.886;6.468;2023-04-29T03:25:18;89.45;;;49.25;;
27305;SDS011;14792;50.886;6.468;2023-04-29T03:28:20;101.38;;;50.60;;
27305;SDS011;14792;50.886;6.468;2023-04-29T03:31:22;115.32;;;54.93;;
27305;SDS011;14792;50.886;6.468;2023-04-29T03:34:23;129.07;;;58.20;;
27305;SDS011;14792;50.886;6.468;2023-04-29T03:37:25;128.07;;;58.52;;
27305;SDS011;14792;50.886;6.468;2023-04-29T03:40:30;130.00;;;58.08;;
27305;SDS011;14792;50.886;6.468;2023-04-29T03:43:32;137.92;;;62.50;;
27305;SDS011;14792;50.886;6.468;2023-04-29T03:46:33;142.82;;;62.40;;
27305;SDS011;14792;50.886;6.468;2023-04-29T03:49:35;155.40;;;63.65;;
27305;SDS011;14792;50.886;6.468;2023-04-29T03:52:36;149.80;;;63.65;;
27305;SDS011;14792;50.886;6.468;2023-04-29T03:55:38;157.25;;;65.87;;
27305;SDS011;14792;50.886;6.468;2023-04-29T03:58:39;161.97;;;69.92;;
27305;SDS011;14792;50.886;6.468;2023-04-29T04:01:41;161.20;;;68.87;;
27305;SDS011;14792;50.886;6.468;2023-04-29T04:04:43;170.77;;;71.82;;
27305;SDS011;14792;50.886;6.468;2023-04-29T04:07:44;186.82;;;78.25;;
27305;SDS011;14792;50.886;6.468;2023-04-29T04:10:46;185.37;;;77.53;;
27305;SDS011;14792;50.886;6.468;2023-04-29T04:13:47;188.97;;;80.12;;
27305;SDS011;14792;50.886;6.468;2023-04-29T04:16:49;192.57;;;79.32;;
27305;SDS011;14792;50.886;6.468;2023-04-29T04:19:50;167.80;;;69.92;;
27305;SDS011;14792;50.886;6.468;2023-04-29T04:22:52;167.37;;;67.12;;
27305;SDS011;14792;50.886;6.468;2023-04-29T04:25:54;155.48;;;58.58;;
27305;SDS011;14792;50.886;6.468;2023-04-29T04:28:55;161.80;;;59.45;;
27305;SDS011;14792;50.886;6.468;2023-04-29T04:31:57;136.18;;;53.87;;
27305;SDS011;14792;50.886;6.468;2023-04-29T04:34:58;128.15;;;52.17;;
27305;SDS011;14792;50.886;6.468;2023-04-29T04:38:00;135.88;;;52.60;;
27305;SDS011;14792;50.886;6.468;2023-04-29T04:41:03;123.70;;;49.40;;
27305;SDS011;14792;50.886;6.468;2023-04-29T04:44:03;110.63;;;47.98;;
27305;SDS011;14792;50.886;6.468;2023-04-29T04:47:05;108.32;;;49.42;;
27305;SDS011;14792;50.886;6.468;2023-04-29T04:50:06;122.85;;;48.73;;
27305;SDS011;14792;50.886;6.468;2023-04-29T04:53:08;110.57;;;46.10;;
27305;SDS011;14792;50.886;6.468;2023-04-29T04:56:10;98.33;;;44.77;;
27305;SDS011;14792;50.886;6.468;2023-04-29T04:59:11;106.15;;;46.80;;
27305;SDS011;14792;50.886;6.468;2023-04-29T05:02:13;103.47;;;45.92;;
27305;SDS011;14792;50.886;6.468;2023-04-29T05:05:14;98.65;;;44.00;;
27305;SDS011;14792;50.886;6.468;2023-04-29T05:08:16;91.75;;;43.00;;
27305;SDS011;14792;50.886;6.468;2023-04-29T05:11:20;93.70;;;44.30;;
27305;SDS011;14792;50.886;6.468;2023-04-29T05:14:22;94.20;;;43.05;;
27305;SDS011;14792;50.886;6.468;2023-04-29T05:17:23;99.65;;;43.08;;
27305;SDS011;14792;50.886;6.468;2023-04-29T05:20:27;105.35;;;43.75;;
27305;SDS011;14792;50.886;6.468;2023-04-29T05:23:29;96.50;;;43.63;;
27305;SDS011;14792;50.886;6.468;2023-04-29T05:26:30;94.32;;;45.30;;
27305;SDS011;14792;50.886;6.468;2023-04-29T05:29:32;90.22;;;41.68;;
27305;SDS011;14792;50.886;6.468;2023-04-29T05:32:34;90.70;;;41.45;;
27305;SDS011;14792;50.886;6.468;2023-04-29T05:35:36;83.97;;;39.67;;
27305;SDS011;14792;50.886;6.468;2023-04-29T05:38:37;86.78;;;41.85;;
27305;SDS011;14792;50.886;6.468;2023-04-29T05:41:38;90.35;;;39.33;;
27305;SDS011;14792;50.886;6.468;2023-04-29T05:44:40;81.32;;;37.45;;
27305;SDS011;14792;50.886;6.468;2023-04-29T05:47:42;73.60;;;35.98;;
27305;SDS011;14792;50.886;6.468;2023-04-29T05:50:43;74.92;;;36.30;;
27305;SDS011;14792;50.886;6.468;2023-04-29T05:53:45;71.22;;;34.08;;
27305;SDS011;14792;50.886;6.468;2023-04-29T05:56:46;68.00;;;33.73;;
27305;SDS011;14792;50.886;6.468;2023-04-29T05:59:48;64.67;;;31.52;;
27305;SDS011;14792;50.886;6.468;2023-04-29T06:02:50;64.53;;;29.70;;
27305;SDS011;14792;50.886;6.468;2023-04-29T06:05:51;60.70;;;30.72;;
27305;SDS011;14792;50.886;6.468;2023-04-29T06:08:53;66.62;;;31.37;;
27305;SDS011;14792;50.886;6.468;2023-04-29T06:11:54;62.20;;;28.32;;
27305;SDS011;14792;50.886;6.468;2023-04-29T06:14:56;60.23;;;28.35;;
27305;SDS011;14792;50.886;6.468;2023-04-29T06:17:58;61.73;;;29.70;;
27305;SDS011;14792;50.886;6.468;2023-04-29T06:20:59;57.35;;;29.02;;
27305;SDS011;14792;50.886;6.468;2023-04-29T06:24:01;56.70;;;28.75;;
27305;SDS011;14792;50.886;6.468;2023-04-29T06:27:02;52.38;;;28.60;;
27305;SDS011;14792;50.886;6.468;2023-04-29T06:30:04;58.08;;;31.80;;
27305;SDS011;14792;50.886;6.468;2023-04-29T06:33:07;55.60;;;30.82;;
27305;SDS011;14792;50.886;6.468;2023-04-29T06:36:08;57.25;;;28.75;;
27305;SDS011;14792;50.886;6.468;2023-04-29T06:39:10;57.80;;;30.37;;
27305;SDS011;14792;50.886;6.468;2023-04-29T06:42:11;54.25;;;28.57;;
27305;SDS011;14792;50.886;6.468;2023-04-29T06:45:13;56.30;;;31.30;;
27305;SDS011;14792;50.886;6.468;2023-04-29T06:48:15;53.65;;;29.48;;
27305;SDS011;14792;50.886;6.468;2023-04-29T06:51:16;53.17;;;29.95;;
27305;SDS011;14792;50.886;6.468;2023-04-29T06:54:18;60.88;;;34.40;;
27305;SDS011;14792;50.886;6.468;2023-04-29T06:57:19;61.20;;;32.73;;
27305;SDS011;14792;50.886;6.468;2023-04-29T07:00:21;62.38;;;37.55;;
27305;SDS011;14792;50.886;6.468;2023-04-29T07:03:23;66.37;;;35.85;;
27305;SDS011;14792;50.886;6.468;2023-04-29T07:06:24;63.95;;;34.83;;
27305;SDS011;14792;50.886;6.468;2023-04-29T07:09:26;60.10;;;30.97;;
27305;SDS011;14792;50.886;6.468;2023-04-29T07:12:27;60.92;;;31.57;;
27305;SDS011;14792;50.886;6.468;2023-04-29T07:15:29;49.93;;;29.32;;
27305;SDS011;14792;50.886;6.468;2023-04-29T07:18:31;48.98;;;28.73;;
27305;SDS011;14792;50.886;6.468;2023-04-29T07:21:32;52.25;;;29.12;;
27305;SDS011;14792;50.886;6.468;2023-04-29T07:24:34;50.43;;;28.67;;
27305;SDS011;14792;50.886;6.468;2023-04-29T07:27:35;52.67;;;29.12;;
27305;SDS011;14792;50.886;6.468;2023-04-29T07:30:37;42.05;;;25.23;;
27305;SDS011;14792;50.886;6.468;2023-04-29T07:33:39;53.30;;;30.48;;
27305;SDS011;14792;50.886;6.468;2023-04-29T07:36:40;44.08;;;24.40;;
27305;SDS011;14792;50.886;6.468;2023-04-29T07:39:42;41.92;;;25.15;;
27305;SDS011;14792;50.886;6.468;2023-04-29T07:42:43;50.12;;;26.02;;
27305;SDS011;14792;50.886;6.468;2023-04-29T07:45:45;48.20;;;26.95;;
27305;SDS011;14792;50.886;6.468;2023-04-29T07:48:46;39.78;;;23.32;;
27305;SDS011;14792;50.886;6.468;2023-04-29T07:51:48;42.95;;;25.48;;
27305;SDS011;14792;50.886;6.468;2023-04-29T07:54:50;41.90;;;24.98;;
27305;SDS011;14792;50.886;6.468;2023-04-29T07:57:51;36.50;;;23.47;;
27305;SDS011;14792;50.886;6.468;2023-04-29T08:00:53;41.02;;;24.87;;
27305;SDS011;14792;50.886;6.468;2023-04-29T08:03:54;37.73;;;23.45;;
27305;SDS011;14792;50.886;6.468;2023-04-29T08:06:56;39.42;;;24.57;;
27305;SDS011;14792;50.886;6.468;2023-04-29T08:09:58;39.42;;;21.57;;
27305;SDS011;14792;50.886;6.468;2023-04-29T08:12:59;36.93;;;22.67;;
27305;SDS011;14792;50.886;6.468;2023-04-29T08:16:01;40.30;;;23.60;;
27305;SDS011;14792;50.886;6.468;2023-04-29T08:19:02;41.23;;;23.30;;
27305;SDS011;14792;50.886;6.468;2023-04-29T08:22:04;35.15;;;21.05;;
27305;SDS011;14792;50.886;6.468;2023-04-29T08:25:06;32.73;;;20.92;;
27305;SDS011;14792;50.886;6.468;2023-04-29T08:28:07;36.68;;;20.75;;
27305;SDS011;14792;50.886;6.468;2023-04-29T08:31:16;33.55;;;20.45;;
27305;SDS011;14792;50.886;6.468;2023-04-29T08:34:17;32.60;;;20.37;;
27305;SDS011;14792;50.886;6.468;2023-04-29T08:37:18;27.10;;;18.10;;
27305;SDS011;14792;50.886;6.468;2023-04-29T08:40:20;23.02;;;15.20;;
27305;SDS011;14792;50.886;6.468;2023-04-29T08:43:21;24.60;;;15.63;;
27305;SDS011;14792;50.886;6.468;2023-04-29T08:46:24;25.85;;;17.17;;
27305;SDS011;14792;50.886;6.468;2023-04-29T08:49:25;22.62;;;13.90;;
27305;SDS011;14792;50.886;6.468;2023-04-29T08:52:30;22.25;;;14.30;;
27305;SDS011;14792;50.886;6.468;2023-04-29T08:55:31;22.27;;;14.98;;
27305;SDS011;14792;50.886;6.468;2023-04-29T08:58:33;24.02;;;14.43;;
27305;SDS011;14792;50.886;6.468;2023-04-29T09:01:34;24.57;;;15.80;;
27305;SDS011;14792;50.886;6.468;2023-04-29T09:04:57;26.60;;;15.88;;
27305;SDS011;14792;50.886;6.468;2023-04-29T09:08:04;20.75;;;14.43;;
27305;SDS011;14792;50.886;6.468;2023-04-29T09:11:09;23.60;;;15.00;;
27305;SDS011;14792;50.886;6.468;2023-04-29T09:14:11;28.10;;;15.95;;
27305;SDS011;14792;50.886;6.468;2023-04-29T09:17:12;23.05;;;15.45;;
27305;SDS011;14792;50.886;6.468;2023-04-29T09:23:22;24.95;;;16.82;;
27305;SDS011;14792;50.886;6.468;2023-04-29T09:26:23;30.60;;;18.15;;
27305;SDS011;14792;50.886;6.468;2023-04-29T09:29:25;27.10;;;17.57;;
27305;SDS011;14792;50.886;6.468;2023-04-29T09:32:26;25.60;;;17.20;;
27305;SDS011;14792;50.886;6.468;2023-04-29T09:35:29;26.37;;;16.23;;
27305;SDS011;14792;50.886;6.468;2023-04-29T09:38:30;23.47;;;15.65;;
27305;SDS011;14792;50.886;6.468;2023-04-29T09:41:31;23.90;;;15.25;;
27305;SDS011;14792;50.886;6.468;2023-04-29T09:44:33;20.37;;;14.00;;
27305;SDS011;14792;50.886;6.468;2023-04-29T09:47:37;21.50;;;14.78;;
27305;SDS011;14792;50.886;6.468;2023-04-29T09:50:39;24.37;;;15.68;;
27305;SDS011;14792;50.886;6.468;2023-04-29T09:53:40;22.00;;;15.15;;
27305;SDS011;14792;50.886;6.468;2023-04-29T09:56:49;23.12;;;14.85;;
27305;SDS011;14792;50.886;6.468;2023-04-29T09:59:50;22.55;;;14.45;;
27305;SDS011;14792;50.886;6.468;2023-04-29T10:02:52;21.90;;;15.30;;
27305;SDS011;14792;50.886;6.468;2023-04-29T10:05:53;21.35;;;14.23;;
27305;SDS011;14792;50.886;6.468;2023-04-29T10:08:54;24.75;;;15.90;;
27305;SDS011;14792;50.886;6.468;2023-04-29T10:11:56;22.77;;;15.25;;
27305;SDS011;14792;50.886;6.468;2023-04-29T10:15:02;20.55;;;14.53;;
27305;SDS011;14792;50.886;6.468;2023-04-29T10:18:08;22.62;;;14.83;;
27305;SDS011;14792;50.886;6.468;2023-04-29T10:21:07;19.90;;;15.18;;
27305;SDS011;14792;50.886;6.468;2023-04-29T10:24:08;24.60;;;15.30;;
27305;SDS011;14792;50.886;6.468;2023-04-29T10:27:10;21.50;;;15.00;;
27305;SDS011;14792;50.886;6.468;2023-04-29T10:30:14;25.80;;;16.67;;
27305;SDS011;14792;50.886;6.468;2023-04-29T10:33:15;24.80;;;16.80;;
27305;SDS011;14792;50.886;6.468;2023-04-29T10:36:17;24.25;;;16.45;;
27305;SDS011;14792;50.886;6.468;2023-04-29T10:39:21;23.05;;;17.32;;
27305;SDS011;14792;50.886;6.468;2023-04-29T10:45:42;24.32;;;17.07;;
27305;SDS011;14792;50.886;6.468;2023-04-29T10:48:47;26.95;;;15.80;;
27305;SDS011;14792;50.886;6.468;2023-04-29T10:51:48;24.65;;;17.05;;
27305;SDS011;14792;50.886;6.468;2023-04-29T10:55:23;23.62;;;16.82;;
27305;SDS011;14792;50.886;6.468;2023-04-29T10:58:03;23.65;;;16.93;;
27305;SDS011;14792;50.886;6.468;2023-04-29T11:01:05;23.20;;;17.10;;
27305;SDS011;14792;50.886;6.468;2023-04-29T11:04:06;25.27;;;17.20;;
27305;SDS011;14792;50.886;6.468;2023-04-29T11:07:09;23.70;;;16.67;;
27305;SDS011;14792;50.886;6.468;2023-04-29T11:10:11;28.15;;;18.75;;
27305;SDS011;14792;50.886;6.468;2023-04-29T11:13:28;26.17;;;17.23;;
27305;SDS011;14792;50.886;6.468;2023-04-29T11:16:29;25.77;;;18.57;;
27305;SDS011;14792;50.886;6.468;2023-04-29T11:19:32;31.17;;;19.62;;
27305;SDS011;14792;50.886;6.468;2023-04-29T11:22:32;29.80;;;19.80;;
27305;SDS011;14792;50.886;6.468;2023-04-29T11:25:34;31.20;;;19.55;;
27305;SDS011;14792;50.886;6.468;2023-04-29T11:28:36;28.40;;;20.00;;
27305;SDS011;14792;50.886;6.468;2023-04-29T11:31:37;31.55;;;21.68;;
27305;SDS011;14792;50.886;6.468;2023-04-29T11:34:39;35.52;;;22.85;;
27305;SDS011;14792;50.886;6.468;2023-04-29T11:37:41;30.15;;;22.58;;
27305;SDS011;14792;50.886;6.468;2023-04-29T11:40:48;33.10;;;23.35;;
27305;SDS011;14792;50.886;6.468;2023-04-29T11:43:59;35.00;;;22.85;;
27305;SDS011;14792;50.886;6.468;2023-04-29T11:47:01;36.38;;;23.15;;
27305;SDS011;14792;50.886;6.468;2023-04-29T11:50:05;35.92;;;23.45;;
27305;SDS011;14792;50.886;6.468;2023-04-29T11:53:06;38.75;;;24.95;;
27305;SDS011;14792;50.886;6.468;2023-04-29T11:56:08;41.75;;;26.20;;
27305;SDS011;14792;50.886;6.468;2023-04-29T11:59:09;39.40;;;25.97;;
27305;SDS011;14792;50.886;6.468;2023-04-29T12:02:11;36.20;;;25.27;;
27305;SDS011;14792;50.886;6.468;2023-04-29T12:05:13;40.67;;;25.92;;
27305;SDS011;14792;50.886;6.468;2023-04-29T12:11:16;39.10;;;25.62;;
27305;SDS011;14792;50.886;6.468;2023-04-29T12:14:17;39.85;;;27.05;;
27305;SDS011;14792;50.886;6.468;2023-04-29T12:17:19;44.90;;;28.00;;
27305;SDS011;14792;50.886;6.468;2023-04-29T12:20:21;48.78;;;28.73;;
27305;SDS011;14792;50.886;6.468;2023-04-29T12:27:07;42.90;;;27.70;;
27305;SDS011;14792;50.886;6.468;2023-04-29T12:30:08;42.27;;;29.23;;
27305;SDS011;14792;50.886;6.468;2023-04-29T12:33:10;52.20;;;28.47;;
27305;SDS011;14792;50.886;6.468;2023-04-29T12:36:15;46.10;;;28.57;;
27305;SDS011;14792;50.886;6.468;2023-04-29T12:39:16;43.87;;;28.75;;
27305;SDS011;14792;50.886;6.468;2023-04-29T12:42:18;42.95;;;27.85;;
27305;SDS011;14792;50.886;6.468;2023-04-29T12:45:28;50.88;;;28.42;;
27305;SDS011;14792;50.886;6.468;2023-04-29T12:48:30;41.00;;;28.23;;
27305;SDS011;14792;50.886;6.468;2023-04-29T12:51:32;38.05;;;27.05;;
27305;SDS011;14792;50.886;6.468;2023-04-29T12:54:33;40.67;;;26.77;;
27305;SDS011;14792;50.886;6.468;2023-04-29T12:57:35;46.88;;;26.75;;
27305;SDS011;14792;50.886;6.468;2023-04-29T13:00:36;45.83;;;28.40;;
27305;SDS011;14792;50.886;6.468;2023-04-29T13:03:38;36.58;;;26.10;;
27305;SDS011;14792;50.886;6.468;2023-04-29T13:06:39;40.98;;;26.95;;
27305;SDS011;14792;50.886;6.468;2023-04-29T13:09:41;43.68;;;26.95;;
27305;SDS011;14792;50.886;6.468;2023-04-29T13:12:43;38.20;;;26.27;;
27305;SDS011;14792;50.886;6.468;2023-04-29T13:15:45;43.63;;;26.90;;
27305;SDS011;14792;50.886;6.468;2023-04-29T13:18:46;37.08;;;26.52;;
27305;SDS011;14792;50.886;6.468;2023-04-29T13:21:48;39.13;;;26.12;;
27305;SDS011;14792;50.886;6.468;2023-04-29T13:24:50;40.90;;;26.37;;
27305;SDS011;14792;50.886;6.468;2023-04-29T13:27:51;35.92;;;25.15;;
27305;SDS011;14792;50.886;6.468;2023-04-29T13:30:53;36.90;;;24.43;;
27305;SDS011;14792;50.886;6.468;2023-04-29T13:33:55;40.20;;;26.52;;
27305;SDS011;14792;50.886;6.468;2023-04-29T13:36:56;37.83;;;25.88;;
27305;SDS011;14792;50.886;6.468;2023-04-29T13:39:58;37.40;;;25.92;;
27305;SDS011;14792;50.886;6.468;2023-04-29T13:43:00;37.17;;;25.15;;
27305;SDS011;14792;50.886;6.468;2023-04-29T13:46:01;42.17;;;28.65;;
27305;SDS011;14792;50.886;6.468;2023-04-29T13:49:03;36.53;;;26.90;;
27305;SDS011;14792;50.886;6.468;2023-04-29T13:52:05;35.85;;;26.70;;
27305;SDS011;14792;50.886;6.468;2023-04-29T13:55:06;33.73;;;24.32;;
27305;SDS011;14792;50.886;6.468;2023-04-29T13:58:08;36.98;;;24.50;;
27305;SDS011;14792;50.886;6.468;2023-04-29T14:01:10;35.43;;;22.75;;
27305;SDS011;14792;50.886;6.468;2023-04-29T14:04:11;32.90;;;24.20;;
27305;SDS011;14792;50.886;6.468;2023-04-29T14:07:13;31.82;;;23.12;;
27305;SDS011;14792;50.886;6.468;2023-04-29T14:10:14;36.00;;;24.15;;
27305;SDS011;14792;50.886;6.468;2023-04-29T14:13:16;35.83;;;24.67;;
27305;SDS011;14792;50.886;6.468;2023-04-29T14:16:18;34.58;;;23.55;;
27305;SDS011;14792;50.886;6.468;2023-04-29T14:19:19;33.85;;;22.25;;
27305;SDS011;14792;50.886;6.468;2023-04-29T14:22:21;32.17;;;22.58;;
27305;SDS011;14792;50.886;6.468;2023-04-29T14:25:23;29.87;;;21.33;;
27305;SDS011;14792;50.886;6.468;2023-04-29T14:28:24;28.17;;;20.10;;
27305;SDS011;14792;50.886;6.468;2023-04-29T14:31:26;30.15;;;21.02;;
27305;SDS011;14792;50.886;6.468;2023-04-29T14:34:27;31.42;;;21.65;;
27305;SDS011;14792;50.886;6.468;2023-04-29T14:37:29;29.85;;;22.02;;
27305;SDS011;14792;50.886;6.468;2023-04-29T14:40:31;33.15;;;21.73;;
27305;SDS011;14792;50.886;6.468;2023-04-29T14:43:34;33.08;;;22.02;;
27305;SDS011;14792;50.886;6.468;2023-04-29T14:46:35;32.25;;;22.35;;
27305;SDS011;14792;50.886;6.468;2023-04-29T14:49:37;27.75;;;20.12;;
27305;SDS011;14792;50.886;6.468;2023-04-29T14:52:38;27.15;;;22.15;;
27305;SDS011;14792;50.886;6.468;2023-04-29T14:55:40;31.42;;;22.27;;
27305;SDS011;14792;50.886;6.468;2023-04-29T14:58:42;28.00;;;22.75;;
27305;SDS011;14792;50.886;6.468;2023-04-29T15:01:43;27.75;;;22.15;;
27305;SDS011;14792;50.886;6.468;2023-04-29T15:04:45;31.05;;;24.12;;
27305;SDS011;14792;50.886;6.468;2023-04-29T15:07:46;30.68;;;24.32;;
27305;SDS011;14792;50.886;6.468;2023-04-29T15:10:48;31.48;;;24.75;;
27305;SDS011;14792;50.886;6.468;2023-04-29T15:13:50;38.02;;;26.07;;
27305;SDS011;14792;50.886;6.468;2023-04-29T15:16:52;33.35;;;25.77;;
27305;SDS011;14792;50.886;6.468;2023-04-29T15:19:53;40.17;;;30.68;;
27305;SDS011;14792;50.886;6.468;2023-04-29T15:22:55;36.93;;;28.05;;
27305;SDS011;14792;50.886;6.468;2023-04-29T15:25:57;34.35;;;28.02;;
27305;SDS011;14792;50.886;6.468;2023-04-29T15:28:58;32.90;;;27.52;;
27305;SDS011;14792;50.886;6.468;2023-04-29T15:32:00;36.90;;;27.35;;
27305;SDS011;14792;50.886;6.468;2023-04-29T15:35:02;33.45;;;24.90;;
27305;SDS011;14792;50.886;6.468;2023-04-29T15:38:03;31.75;;;24.20;;
27305;SDS011;14792;50.886;6.468;2023-04-29T15:41:04;31.57;;;24.07;;
27305;SDS011;14792;50.886;6.468;2023-04-29T15:44:06;37.63;;;24.00;;
27305;SDS011;14792;50.886;6.468;2023-04-29T15:47:08;37.83;;;26.42;;
27305;SDS011;14792;50.886;6.468;2023-04-29T15:50:09;35.98;;;25.40;;
27305;SDS011;14792;50.886;6.468;2023-04-29T15:53:11;34.03;;;26.68;;
27305;SDS011;14792;50.886;6.468;2023-04-29T15:56:12;33.53;;;25.90;;
27305;SDS011;14792;50.886;6.468;2023-04-29T15:59:14;34.25;;;25.82;;
27305;SDS011;14792;50.886;6.468;2023-04-29T16:02:16;36.93;;;27.62;;
27305;SDS011;14792;50.886;6.468;2023-04-29T16:05:17;38.30;;;27.07;;
27305;SDS011;14792;50.886;6.468;2023-04-29T16:08:19;33.73;;;26.07;;
27305;SDS011;14792;50.886;6.468;2023-04-29T16:11:20;30.43;;;25.12;;
27305;SDS011;14792;50.886;6.468;2023-04-29T16:14:22;31.73;;;25.17;;
27305;SDS011;14792;50.886;6.468;2023-04-29T16:17:24;33.75;;;25.10;;
27305;SDS011;14792;50.886;6.468;2023-04-29T16:20:25;33.42;;;25.32;;
27305;SDS011;14792;50.886;6.468;2023-04-29T16:23:27;34.90;;;24.85;;
27305;SDS011;14792;50.886;6.468;2023-04-29T16:26:28;32.60;;;25.77;;
27305;SDS011;14792;50.886;6.468;2023-04-29T16:29:30;33.18;;;24.45;;
27305;SDS011;14792;50.886;6.468;2023-04-29T16:32:32;33.28;;;24.65;;
27305;SDS011;14792;50.886;6.468;2023-04-29T16:35:33;41.53;;;26.73;;
27305;SDS011;14792;50.886;6.468;2023-04-29T16:38:35;41.35;;;26.75;;
27305;SDS011;14792;50.886;6.468;2023-04-29T16:41:36;39.08;;;28.65;;
27305;SDS011;14792;50.886;6.468;2023-04-29T16:44:38;43.73;;;27.67;;
27305;SDS011;14792;50.886;6.468;2023-04-29T16:47:40;41.92;;;27.22;;
27305;SDS011;14792;50.886;6.468;2023-04-29T16:50:41;36.65;;;25.68;;
27305;SDS011;14792;50.886;6.468;2023-04-29T16:53:43;34.73;;;24.00;;
27305;SDS011;14792;50.886;6.468;2023-04-29T16:56:44;35.20;;;23.45;;
27305;SDS011;14792;50.886;6.468;2023-04-29T16:59:46;38.42;;;25.37;;
27305;SDS011;14792;50.886;6.468;2023-04-29T17:02:48;41.18;;;24.23;;
27305;SDS011;14792;50.886;6.468;2023-04-29T17:05:49;28.17;;;22.45;;
27305;SDS011;14792;50.886;6.468;2023-04-29T17:08:51;31.15;;;22.50;;
27305;SDS011;14792;50.886;6.468;2023-04-29T17:11:52;36.55;;;23.57;;
27305;SDS011;14792;50.886;6.468;2023-04-29T17:14:54;36.73;;;24.60;;
27305;SDS011;14792;50.886;6.468;2023-04-29T17:17:56;38.35;;;23.87;;
27305;SDS011;14792;50.886;6.468;2023-04-29T17:20:58;36.93;;;22.85;;
27305;SDS011;14792;50.886;6.468;2023-04-29T17:24:02;33.10;;;22.93;;
27305;SDS011;14792;50.886;6.468;2023-04-29T17:27:03;31.95;;;23.70;;
27305;SDS011;14792;50.886;6.468;2023-04-29T17:30:07;27.80;;;20.62;;
27305;SDS011;14792;50.886;6.468;2023-04-29T17:33:08;31.52;;;21.30;;
27305;SDS011;14792;50.886;6.468;2023-04-29T17:36:10;29.48;;;20.52;;
27305;SDS011;14792;50.886;6.468;2023-04-29T17:39:11;30.08;;;21.17;;
27305;SDS011;14792;50.886;6.468;2023-04-29T17:42:13;30.52;;;21.93;;
27305;SDS011;14792;50.886;6.468;2023-04-29T17:45:15;29.48;;;21.60;;
27305;SDS011;14792;50.886;6.468;2023-04-29T17:48:16;29.72;;;22.80;;
27305;SDS011;14792;50.886;6.468;2023-04-29T17:51:18;36.60;;;22.55;;
27305;SDS011;14792;50.886;6.468;2023-04-29T17:54:20;25.97;;;20.95;;
27305;SDS011;14792;50.886;6.468;2023-04-29T17:57:21;26.65;;;20.15;;
27305;SDS011;14792;50.886;6.468;2023-04-29T18:00:23;32.60;;;21.05;;
27305;SDS011;14792;50.886;6.468;2023-04-29T18:03:24;27.20;;;20.27;;